sensor_id;sensor_type;location;lat;lon;timestamp;pressure;altitude;pressure_sealevel;temperature;humidity
70555;BME280;58104;52.744;15.242;2023-01-28T00:00:42;101884.05;;;16.42;38.94
70555;BME280;58104;52.744;15.242;2023-01-28T00:03:07;101881.96;;;16.39;38.97
70555;BME280;58104;52.744;15.242;2023-01-28T00:05:33;101877.16;;;16.37;39.16
70555;BME280;58104;52.744;15.242;2023-01-28T00:07:58;101883.02;;;16.42;39.46
70555;BME280;58104;52.744;15.242;2023-01-28T00:10:24;101886.13;;;16.46;39.46
70555;BME280;58104;52.744;15.242;2023-01-28T00:12:49;101885.79;;;16.40;39.59
70555;BME280;58104;52.744;15.242;2023-01-28T00:15:15;101889.52;;;16.44;39.74
70555;BME280;58104;52.744;15.242;2023-01-28T00:17:40;101895.18;;;16.47;39.65
70555;BME280;58104;52.744;15.242;2023-01-28T00:20:06;101894.27;;;16.48;39.84
70555;BME280;58104;52.744;15.242;2023-01-28T00:22:31;101897.84;;;16.49;40.03
70555;BME280;58104;52.744;15.242;2023-01-28T00:24:57;101895.07;;;16.52;40.00
70555;BME280;58104;52.744;15.242;2023-01-28T00:27:22;101893.54;;;16.46;40.32
70555;BME280;58104;52.744;15.242;2023-01-28T00:29:47;101886.99;;;16.49;40.34
70555;BME280;58104;52.744;15.242;2023-01-28T00:32:13;101888.64;;;16.54;40.34
70555;BME280;58104;52.744;15.242;2023-01-28T00:34:38;101887.56;;;16.45;40.47
70555;BME280;58104;52.744;15.242;2023-01-28T00:37:04;101888.96;;;16.58;40.51
70555;BME280;58104;52.744;15.242;2023-01-28T00:39:29;101890.13;;;16.58;40.54
70555;BME280;58104;52.744;15.242;2023-01-28T00:41:55;101892.41;;;16.57;40.65
70555;BME280;58104;52.744;15.242;2023-01-28T00:44:20;101896.75;;;16.51;40.74
70555;BME280;58104;52.744;15.242;2023-01-28T00:46:46;101893.70;;;16.56;40.73
70555;BME280;58104;52.744;15.242;2023-01-28T00:49:11;101896.12;;;16.57;40.87
70555;BME280;58104;52.744;15.242;2023-01-28T00:51:36;101891.95;;;16.57;41.02
70555;BME280;58104;52.744;15.242;2023-01-28T00:54:02;101892.48;;;16.56;41.13
70555;BME280;58104;52.744;15.242;2023-01-28T00:56:27;101892.32;;;16.52;41.21
70555;BME280;58104;52.744;15.242;2023-01-28T00:58:53;101891.11;;;16.61;41.21
70555;BME280;58104;52.744;15.242;2023-01-28T01:01:20;101895.14;;;16.57;41.26
70555;BME280;58104;52.744;15.242;2023-01-28T01:03:44;101895.75;;;16.65;41.39
70555;BME280;58104;52.744;15.242;2023-01-28T01:06:10;101894.81;;;16.59;41.40
70555;BME280;58104;52.744;15.242;2023-01-28T01:08:34;101898.12;;;16.65;41.50
70555;BME280;58104;52.744;15.242;2023-01-28T01:11:00;101900.38;;;16.69;41.53
70555;BME280;58104;52.744;15.242;2023-01-28T01:13:25;101902.87;;;16.73;41.56
70555;BME280;58104;52.744;15.242;2023-01-28T01:18:16;101908.01;;;16.62;41.74
70555;BME280;58104;52.744;15.242;2023-01-28T01:20:42;101912.38;;;16.67;41.70
70555;BME280;58104;52.744;15.242;2023-01-28T01:23:07;101912.56;;;16.63;41.99
70555;BME280;58104;52.744;15.242;2023-01-28T01:25:32;101909.74;;;16.67;41.89
70555;BME280;58104;52.744;15.242;2023-01-28T01:27:58;101911.70;;;16.70;42.06
70555;BME280;58104;52.744;15.242;2023-01-28T01:30:23;101914.57;;;16.65;42.06
70555;BME280;58104;52.744;15.242;2023-01-28T01:32:49;101915.74;;;16.71;42.09
70555;BME280;58104;52.744;15.242;2023-01-28T01:35:14;101917.62;;;16.69;42.27
70555;BME280;58104;52.744;15.242;2023-01-28T01:37:42;101917.16;;;16.71;42.36
70555;BME280;58104;52.744;15.242;2023-01-28T01:40:06;101912.37;;;16.75;42.23
70555;BME280;58104;52.744;15.242;2023-01-28T01:42:32;101911.12;;;16.66;42.35
70555;BME280;58104;52.744;15.242;2023-01-28T01:44:58;101914.13;;;16.80;42.35
70555;BME280;58104;52.744;15.242;2023-01-28T01:47:23;101910.75;;;16.71;42.48
70555;BME280;58104;52.744;15.242;2023-01-28T01:49:47;101918.21;;;16.72;42.55
70555;BME280;58104;52.744;15.242;2023-01-28T01:52:16;101920.88;;;16.77;42.58
70555;BME280;58104;52.744;15.242;2023-01-28T01:54:39;101922.27;;;16.76;42.76
70555;BME280;58104;52.744;15.242;2023-01-28T01:57:04;101919.20;;;16.79;42.69
70555;BME280;58104;52.744;15.242;2023-01-28T01:59:31;101922.94;;;16.79;42.74
70555;BME280;58104;52.744;15.242;2023-01-28T02:01:54;101920.45;;;16.77;42.87
70555;BME280;58104;52.744;15.242;2023-01-28T02:04:24;101918.72;;;16.89;42.83
70555;BME280;58104;52.744;15.242;2023-01-28T02:06:46;101919.79;;;16.89;42.84
70555;BME280;58104;52.744;15.242;2023-01-28T02:11:36;101914.97;;;16.81;43.01
70555;BME280;58104;52.744;15.242;2023-01-28T02:14:04;101913.01;;;16.84;43.07
70555;BME280;58104;52.744;15.242;2023-01-28T02:16:27;101916.76;;;16.94;43.05
70555;BME280;58104;52.744;15.242;2023-01-28T02:18:52;101911.58;;;16.94;42.99
70555;BME280;58104;52.744;15.242;2023-01-28T02:21:33;101910.54;;;16.96;43.13
70555;BME280;58104;52.744;15.242;2023-01-28T02:23:51;101908.16;;;16.86;43.16
70555;BME280;58104;52.744;15.242;2023-01-28T02:26:20;101907.40;;;16.91;43.30
70555;BME280;58104;52.744;15.242;2023-01-28T02:28:38;101911.29;;;16.88;43.38
70555;BME280;58104;52.744;15.242;2023-01-28T02:31:07;101907.68;;;16.83;43.48
70555;BME280;58104;52.744;15.242;2023-01-28T02:33:29;101905.83;;;16.89;43.49
70555;BME280;58104;52.744;15.242;2023-01-28T02:35:52;101907.28;;;16.85;43.51
70555;BME280;58104;52.744;15.242;2023-01-28T02:38:19;101911.13;;;16.86;43.59
70555;BME280;58104;52.744;15.242;2023-01-28T02:40:44;101909.93;;;16.88;43.55
70555;BME280;58104;52.744;15.242;2023-01-28T02:43:07;101911.77;;;17.00;43.77
70555;BME280;58104;52.744;15.242;2023-01-28T02:45:34;101908.85;;;17.05;43.68
70555;BME280;58104;52.744;15.242;2023-01-28T02:47:57;101904.06;;;17.12;43.55
70555;BME280;58104;52.744;15.242;2023-01-28T02:50:27;101902.81;;;17.06;43.60
70555;BME280;58104;52.744;15.242;2023-01-28T02:52:58;101907.89;;;17.05;43.63
70555;BME280;58104;52.744;15.242;2023-01-28T02:55:22;101909.07;;;17.19;43.48
70555;BME280;58104;52.744;15.242;2023-01-28T02:57:44;101903.29;;;17.14;43.61
70555;BME280;58104;52.744;15.242;2023-01-28T03:00:10;101903.40;;;17.06;43.68
70555;BME280;58104;52.744;15.242;2023-01-28T03:02:35;101908.75;;;17.14;43.61
70555;BME280;58104;52.744;15.242;2023-01-28T03:04:59;101909.44;;;17.21;43.54
70555;BME280;58104;52.744;15.242;2023-01-28T03:07:22;101911.61;;;17.15;43.57
70555;BME280;58104;52.744;15.242;2023-01-28T03:09:47;101911.76;;;17.22;43.67
70555;BME280;58104;52.744;15.242;2023-01-28T03:12:17;101912.64;;;17.09;43.86
70555;BME280;58104;52.744;15.242;2023-01-28T03:14:38;101908.24;;;17.10;43.86
70555;BME280;58104;52.744;15.242;2023-01-28T03:17:04;101912.16;;;17.11;43.93
70555;BME280;58104;52.744;15.242;2023-01-28T03:19:28;101911.99;;;17.09;44.00
70555;BME280;58104;52.744;15.242;2023-01-28T03:21:54;101918.26;;;17.16;43.90
70555;BME280;58104;52.744;15.242;2023-01-28T03:24:22;101917.72;;;17.14;43.94
70555;BME280;58104;52.744;15.242;2023-01-28T03:26:50;101916.73;;;17.19;43.88
70555;BME280;58104;52.744;15.242;2023-01-28T03:29:12;101915.25;;;17.20;43.94
70555;BME280;58104;52.744;15.242;2023-01-28T03:31:36;101919.25;;;17.22;44.08
70555;BME280;58104;52.744;15.242;2023-01-28T03:34:02;101917.06;;;17.21;44.25
70555;BME280;58104;52.744;15.242;2023-01-28T03:36:26;101918.87;;;17.22;44.27
70555;BME280;58104;52.744;15.242;2023-01-28T03:38:52;101915.73;;;17.19;44.35
70555;BME280;58104;52.744;15.242;2023-01-28T03:41:21;101915.74;;;17.15;44.32
70555;BME280;58104;52.744;15.242;2023-01-28T03:43:42;101911.84;;;17.17;44.36
70555;BME280;58104;52.744;15.242;2023-01-28T03:46:08;101913.66;;;17.20;44.49
70555;BME280;58104;52.744;15.242;2023-01-28T03:48:33;101913.62;;;17.25;44.58
70555;BME280;58104;52.744;15.242;2023-01-28T03:50:59;101910.90;;;17.21;44.56
70555;BME280;58104;52.744;15.242;2023-01-28T03:53:24;101913.85;;;17.16;44.63
70555;BME280;58104;52.744;15.242;2023-01-28T03:55:51;101910.32;;;17.18;44.62
70555;BME280;58104;52.744;15.242;2023-01-28T03:58:16;101912.06;;;17.21;44.64
70555;BME280;58104;52.744;15.242;2023-01-28T04:00:41;101914.76;;;17.19;44.75
70555;BME280;58104;52.744;15.242;2023-01-28T04:03:06;101916.71;;;17.24;44.80
70555;BME280;58104;52.744;15.242;2023-01-28T04:05:31;101916.81;;;17.28;44.73
70555;BME280;58104;52.744;15.242;2023-01-28T04:07:57;101916.64;;;17.31;44.79
70555;BME280;58104;52.744;15.242;2023-01-28T04:10:22;101915.47;;;17.31;44.76
70555;BME280;58104;52.744;15.242;2023-01-28T04:12:48;101910.73;;;17.40;44.68
70555;BME280;58104;52.744;15.242;2023-01-28T04:15:13;101906.07;;;17.38;44.74
70555;BME280;58104;52.744;15.242;2023-01-28T04:17:39;101904.98;;;17.31;44.82
70555;BME280;58104;52.744;15.242;2023-01-28T04:20:05;101901.87;;;17.38;44.77
70555;BME280;58104;52.744;15.242;2023-01-28T04:22:29;101898.43;;;17.37;44.79
70555;BME280;58104;52.744;15.242;2023-01-28T04:24:55;101900.06;;;17.40;44.75
70555;BME280;58104;52.744;15.242;2023-01-28T04:27:20;101900.25;;;17.35;44.78
70555;BME280;58104;52.744;15.242;2023-01-28T04:29:46;101902.30;;;17.35;44.72
70555;BME280;58104;52.744;15.242;2023-01-28T04:32:11;101903.22;;;17.39;44.71
70555;BME280;58104;52.744;15.242;2023-01-28T04:34:37;101900.49;;;17.39;44.78
70555;BME280;58104;52.744;15.242;2023-01-28T04:37:02;101902.07;;;17.39;44.80
70555;BME280;58104;52.744;15.242;2023-01-28T04:39:28;101906.12;;;17.45;44.95
70555;BME280;58104;52.744;15.242;2023-01-28T04:41:53;101905.62;;;17.51;44.85
70555;BME280;58104;52.744;15.242;2023-01-28T04:44:18;101908.27;;;17.38;44.90
70555;BME280;58104;52.744;15.242;2023-01-28T04:46:44;101910.74;;;17.44;44.86
70555;BME280;58104;52.744;15.242;2023-01-28T04:49:09;101908.56;;;17.37;45.00
70555;BME280;58104;52.744;15.242;2023-01-28T04:51:35;101912.12;;;17.39;44.97
70555;BME280;58104;52.744;15.242;2023-01-28T04:54:00;101918.49;;;17.32;44.99
70555;BME280;58104;52.744;15.242;2023-01-28T04:56:25;101917.78;;;17.27;45.13
70555;BME280;58104;52.744;15.242;2023-01-28T04:58:51;101922.19;;;17.35;45.24
70555;BME280;58104;52.744;15.242;2023-01-28T05:01:16;101925.29;;;17.38;45.33
70555;BME280;58104;52.744;15.242;2023-01-28T05:03:42;101925.07;;;17.37;45.24
70555;BME280;58104;52.744;15.242;2023-01-28T05:06:07;101922.43;;;17.33;45.34
70555;BME280;58104;52.744;15.242;2023-01-28T05:08:33;101925.89;;;17.41;45.26
70555;BME280;58104;52.744;15.242;2023-01-28T05:10:58;101920.99;;;17.35;45.30
70555;BME280;58104;52.744;15.242;2023-01-28T05:13:24;101922.42;;;17.41;45.22
70555;BME280;58104;52.744;15.242;2023-01-28T05:15:51;101923.40;;;17.48;45.18
70555;BME280;58104;52.744;15.242;2023-01-28T05:18:14;101924.92;;;17.36;45.27
70555;BME280;58104;52.744;15.242;2023-01-28T05:20:40;101927.15;;;17.33;45.27
70555;BME280;58104;52.744;15.242;2023-01-28T05:23:05;101927.00;;;17.35;45.28
70555;BME280;58104;52.744;15.242;2023-01-28T05:25:30;101928.89;;;17.36;45.26
70555;BME280;58104;52.744;15.242;2023-01-28T05:27:56;101931.73;;;17.41;45.37
70555;BME280;58104;52.744;15.242;2023-01-28T05:30:21;101932.36;;;17.32;45.58
70555;BME280;58104;52.744;15.242;2023-01-28T05:32:47;101928.06;;;17.28;45.61
70555;BME280;58104;52.744;15.242;2023-01-28T05:35:12;101932.49;;;17.30;45.69
70555;BME280;58104;52.744;15.242;2023-01-28T05:37:38;101935.62;;;17.39;45.46
70555;BME280;58104;52.744;15.242;2023-01-28T05:40:04;101933.34;;;17.42;45.43
70555;BME280;58104;52.744;15.242;2023-01-28T05:42:28;101935.39;;;17.36;45.57
70555;BME280;58104;52.744;15.242;2023-01-28T05:44:54;101932.81;;;17.37;45.55
70555;BME280;58104;52.744;15.242;2023-01-28T05:47:19;101936.65;;;17.35;45.62
70555;BME280;58104;52.744;15.242;2023-01-28T05:49:45;101944.30;;;17.37;45.68
70555;BME280;58104;52.744;15.242;2023-01-28T05:52:10;101944.33;;;17.42;45.52
70555;BME280;58104;52.744;15.242;2023-01-28T05:54:36;101941.74;;;17.40;45.59
70555;BME280;58104;52.744;15.242;2023-01-28T05:57:01;101941.09;;;17.44;45.71
70555;BME280;58104;52.744;15.242;2023-01-28T05:59:26;101944.25;;;17.38;45.73
70555;BME280;58104;52.744;15.242;2023-01-28T06:01:52;101942.61;;;17.42;45.77
70555;BME280;58104;52.744;15.242;2023-01-28T06:04:18;101944.49;;;17.37;45.71
70555;BME280;58104;52.744;15.242;2023-01-28T06:06:43;101943.43;;;17.34;45.80
70555;BME280;58104;52.744;15.242;2023-01-28T06:09:08;101940.91;;;17.34;45.99
70555;BME280;58104;52.744;15.242;2023-01-28T06:11:34;101940.24;;;17.42;45.93
70555;BME280;58104;52.744;15.242;2023-01-28T06:13:59;101938.79;;;17.40;46.10
70555;BME280;58104;52.744;15.242;2023-01-28T06:16:25;101936.33;;;17.43;46.14
70555;BME280;58104;52.744;15.242;2023-01-28T06:18:50;101938.64;;;17.47;46.20
70555;BME280;58104;52.744;15.242;2023-01-28T06:21:15;101941.34;;;17.43;46.11
70555;BME280;58104;52.744;15.242;2023-01-28T06:23:41;101937.87;;;17.43;46.09
70555;BME280;58104;52.744;15.242;2023-01-28T06:26:06;101939.33;;;17.45;46.13
70555;BME280;58104;52.744;15.242;2023-01-28T06:28:32;101942.67;;;17.37;46.29
70555;BME280;58104;52.744;15.242;2023-01-28T06:30:57;101943.58;;;17.41;46.25
70555;BME280;58104;52.744;15.242;2023-01-28T06:33:23;101946.60;;;17.41;46.27
70555;BME280;58104;52.744;15.242;2023-01-28T06:35:48;101946.40;;;17.39;46.38
70555;BME280;58104;52.744;15.242;2023-01-28T06:38:14;101951.82;;;17.45;46.25
70555;BME280;58104;52.744;15.242;2023-01-28T06:40:39;101954.21;;;17.47;46.29
70555;BME280;58104;52.744;15.242;2023-01-28T06:43:05;101955.12;;;17.45;46.31
70555;BME280;58104;52.744;15.242;2023-01-28T06:45:30;101955.50;;;17.50;46.31
70555;BME280;58104;52.744;15.242;2023-01-28T06:47:55;101956.86;;;17.41;46.48
70555;BME280;58104;52.744;15.242;2023-01-28T06:50:21;101959.17;;;17.47;46.48
70555;BME280;58104;52.744;15.242;2023-01-28T06:52:46;101960.31;;;17.61;46.52
70555;BME280;58104;52.744;15.242;2023-01-28T06:55:12;101956.48;;;17.46;46.46
70555;BME280;58104;52.744;15.242;2023-01-28T06:57:37;101958.50;;;17.48;46.50
70555;BME280;58104;52.744;15.242;2023-01-28T07:00:03;101956.55;;;17.49;46.60
70555;BME280;58104;52.744;15.242;2023-01-28T07:02:28;101957.05;;;17.50;46.53
70555;BME280;58104;52.744;15.242;2023-01-28T07:04:53;101961.30;;;17.58;46.50
70555;BME280;58104;52.744;15.242;2023-01-28T07:07:19;101955.74;;;17.55;46.56
70555;BME280;58104;52.744;15.242;2023-01-28T07:09:44;101956.65;;;17.53;46.65
70555;BME280;58104;52.744;15.242;2023-01-28T07:12:10;101964.31;;;17.55;46.62
70555;BME280;58104;52.744;15.242;2023-01-28T07:14:35;101966.94;;;17.42;46.71
70555;BME280;58104;52.744;15.242;2023-01-28T07:17:01;101962.67;;;17.54;46.75
70555;BME280;58104;52.744;15.242;2023-01-28T07:19:26;101964.19;;;17.50;47.04
70555;BME280;58104;52.744;15.242;2023-01-28T07:21:51;101965.50;;;17.55;46.90
70555;BME280;58104;52.744;15.242;2023-01-28T07:24:17;101970.08;;;17.67;46.69
70555;BME280;58104;52.744;15.242;2023-01-28T07:26:42;101970.66;;;17.68;46.70
70555;BME280;58104;52.744;15.242;2023-01-28T07:29:08;101971.30;;;17.52;46.89
70555;BME280;58104;52.744;15.242;2023-01-28T07:31:33;101972.53;;;17.64;46.96
70555;BME280;58104;52.744;15.242;2023-01-28T07:33:59;101971.01;;;17.60;46.96
70555;BME280;58104;52.744;15.242;2023-01-28T07:36:24;101972.48;;;17.67;46.91
70555;BME280;58104;52.744;15.242;2023-01-28T07:38:50;101966.47;;;17.67;47.12
70555;BME280;58104;52.744;15.242;2023-01-28T07:41:15;101968.83;;;17.65;47.06
70555;BME280;58104;52.744;15.242;2023-01-28T07:43:40;101970.40;;;17.69;47.16
70555;BME280;58104;52.744;15.242;2023-01-28T07:46:06;101971.29;;;17.71;47.24
70555;BME280;58104;52.744;15.242;2023-01-28T07:48:31;101972.93;;;17.68;47.19
70555;BME280;58104;52.744;15.242;2023-01-28T07:50:58;101973.78;;;17.66;47.24
70555;BME280;58104;52.744;15.242;2023-01-28T07:53:22;101969.41;;;17.77;47.09
70555;BME280;58104;52.744;15.242;2023-01-28T07:55:48;101971.19;;;17.79;46.99
70555;BME280;58104;52.744;15.242;2023-01-28T07:58:13;101974.75;;;17.80;47.07
70555;BME280;58104;52.744;15.242;2023-01-28T08:00:38;101979.62;;;17.72;47.15
70555;BME280;58104;52.744;15.242;2023-01-28T08:03:05;101976.65;;;17.80;47.07
70555;BME280;58104;52.744;15.242;2023-01-28T08:05:37;101978.37;;;17.76;47.29
70555;BME280;58104;52.744;15.242;2023-01-28T08:07:55;101982.41;;;17.75;47.28
70555;BME280;58104;52.744;15.242;2023-01-28T08:10:20;101982.59;;;17.75;47.09
70555;BME280;58104;52.744;15.242;2023-01-28T08:12:51;101982.47;;;17.78;47.19
70555;BME280;58104;52.744;15.242;2023-01-28T08:15:11;101984.17;;;17.68;47.36
70555;BME280;58104;52.744;15.242;2023-01-28T08:17:36;101985.66;;;17.72;47.31
70555;BME280;58104;52.744;15.242;2023-01-28T08:20:02;101984.79;;;17.75;47.19
70555;BME280;58104;52.744;15.242;2023-01-28T08:22:27;101985.14;;;17.81;47.25
70555;BME280;58104;52.744;15.242;2023-01-28T08:24:53;101982.59;;;17.78;47.17
70555;BME280;58104;52.744;15.242;2023-01-28T08:27:18;101986.94;;;17.78;47.46
70555;BME280;58104;52.744;15.242;2023-01-28T08:29:44;101992.07;;;17.79;47.41
70555;BME280;58104;52.744;15.242;2023-01-28T08:32:09;101991.77;;;17.87;47.86
70555;BME280;58104;52.744;15.242;2023-01-28T08:34:35;101994.08;;;17.78;47.67
70555;BME280;58104;52.744;15.242;2023-01-28T08:37:00;101994.07;;;17.92;47.32
70555;BME280;58104;52.744;15.242;2023-01-28T08:39:25;101991.51;;;17.38;44.12
70555;BME280;58104;52.744;15.242;2023-01-28T08:41:51;101989.60;;;16.67;42.51
70555;BME280;58104;52.744;15.242;2023-01-28T08:44:16;101988.73;;;16.01;43.48
70555;BME280;58104;52.744;15.242;2023-01-28T08:46:42;101990.65;;;15.88;43.68
70555;BME280;58104;52.744;15.242;2023-01-28T08:49:07;101993.65;;;15.61;41.12
70555;BME280;58104;52.744;15.242;2023-01-28T08:51:33;101992.96;;;15.72;43.44
70555;BME280;58104;52.744;15.242;2023-01-28T08:53:58;101984.99;;;15.20;40.68
70555;BME280;58104;52.744;15.242;2023-01-28T08:56:24;101989.70;;;15.48;40.49
70555;BME280;58104;52.744;15.242;2023-01-28T08:58:49;101983.35;;;15.03;40.50
70555;BME280;58104;52.744;15.242;2023-01-28T09:01:14;101982.24;;;15.08;40.19
70555;BME280;58104;52.744;15.242;2023-01-28T09:03:40;101989.75;;;15.24;39.50
70555;BME280;58104;52.744;15.242;2023-01-28T09:06:06;101989.53;;;15.14;39.28
70555;BME280;58104;52.744;15.242;2023-01-28T09:08:31;101990.53;;;14.96;38.68
70555;BME280;58104;52.744;15.242;2023-01-28T09:10:57;101994.59;;;15.00;39.80
70555;BME280;58104;52.744;15.242;2023-01-28T09:13:22;101997.94;;;14.92;39.02
70555;BME280;58104;52.744;15.242;2023-01-28T09:15:47;101998.50;;;14.97;39.34
70555;BME280;58104;52.744;15.242;2023-01-28T09:18:13;101999.77;;;14.92;38.97
70555;BME280;58104;52.744;15.242;2023-01-28T09:20:38;102004.84;;;14.77;39.29
70555;BME280;58104;52.744;15.242;2023-01-28T09:23:04;102011.33;;;14.93;39.21
70555;BME280;58104;52.744;15.242;2023-01-28T09:25:29;102010.14;;;14.78;39.89
70555;BME280;58104;52.744;15.242;2023-01-28T09:27:54;102013.94;;;15.01;39.55
70555;BME280;58104;52.744;15.242;2023-01-28T09:30:19;102014.96;;;15.21;38.57
70555;BME280;58104;52.744;15.242;2023-01-28T09:32:44;102014.51;;;15.00;39.25
70555;BME280;58104;52.744;15.242;2023-01-28T09:35:10;102019.61;;;14.92;38.66
70555;BME280;58104;52.744;15.242;2023-01-28T09:37:36;102019.39;;;14.89;39.51
70555;BME280;58104;52.744;15.242;2023-01-28T09:40:01;102022.15;;;15.16;38.65
70555;BME280;58104;52.744;15.242;2023-01-28T09:42:39;102015.86;;;15.30;38.00
70555;BME280;58104;52.744;15.242;2023-01-28T09:45:00;102020.88;;;15.40;37.84
70555;BME280;58104;52.744;15.242;2023-01-28T09:47:22;102021.03;;;15.35;37.82
70555;BME280;58104;52.744;15.242;2023-01-28T09:49:46;102020.49;;;15.10;37.86
70555;BME280;58104;52.744;15.242;2023-01-28T09:52:12;102019.72;;;15.39;37.61
70555;BME280;58104;52.744;15.242;2023-01-28T09:54:39;102018.96;;;15.40;37.77
70555;BME280;58104;52.744;15.242;2023-01-28T09:57:03;102029.78;;;15.50;36.94
70555;BME280;58104;52.744;15.242;2023-01-28T09:59:24;102027.69;;;15.35;37.22
70555;BME280;58104;52.744;15.242;2023-01-28T10:01:55;102026.48;;;15.51;36.85
70555;BME280;58104;52.744;15.242;2023-01-28T10:04:24;102029.63;;;15.16;37.74
70555;BME280;58104;52.744;15.242;2023-01-28T10:06:44;102027.83;;;14.84;37.26
70555;BME280;58104;52.744;15.242;2023-01-28T10:09:17;102024.63;;;14.88;36.92
70555;BME280;58104;52.744;15.242;2023-01-28T10:11:42;102027.05;;;15.01;37.19
70555;BME280;58104;52.744;15.242;2023-01-28T10:14:02;102031.88;;;15.02;37.72
70555;BME280;58104;52.744;15.242;2023-01-28T10:16:30;102027.27;;;15.11;38.08
70555;BME280;58104;52.744;15.242;2023-01-28T10:18:51;102023.73;;;14.92;37.69
70555;BME280;58104;52.744;15.242;2023-01-28T10:21:15;102023.35;;;15.04;37.33
70555;BME280;58104;52.744;15.242;2023-01-28T10:23:45;102020.02;;;14.91;37.31
70555;BME280;58104;52.744;15.242;2023-01-28T10:26:08;102024.91;;;15.06;37.03
70555;BME280;58104;52.744;15.242;2023-01-28T10:28:29;102023.80;;;15.19;36.37
70555;BME280;58104;52.744;15.242;2023-01-28T10:30:54;102018.94;;;14.87;37.92
70555;BME280;58104;52.744;15.242;2023-01-28T10:33:23;102013.42;;;14.83;38.07
70555;BME280;58104;52.744;15.242;2023-01-28T10:35:45;102012.89;;;14.80;37.65
70555;BME280;58104;52.744;15.242;2023-01-28T10:38:14;102015.08;;;15.17;37.00
70555;BME280;58104;52.744;15.242;2023-01-28T10:40:36;102008.78;;;15.14;36.83
70555;BME280;58104;52.744;15.242;2023-01-28T10:43:01;102006.93;;;15.05;36.54
70555;BME280;58104;52.744;15.242;2023-01-28T10:45:29;102002.24;;;14.49;34.23
70555;BME280;58104;52.744;15.242;2023-01-28T10:47:58;102004.17;;;14.75;36.87
70555;BME280;58104;52.744;15.242;2023-01-28T10:50:22;102001.35;;;14.53;36.05
70555;BME280;58104;52.744;15.242;2023-01-28T10:52:52;102005.72;;;14.71;36.20
70555;BME280;58104;52.744;15.242;2023-01-28T10:55:13;102001.06;;;14.97;36.48
70555;BME280;58104;52.744;15.242;2023-01-28T10:57:40;101990.54;;;15.16;36.24
70555;BME280;58104;52.744;15.242;2023-01-28T11:00:09;101992.91;;;15.24;36.13
70555;BME280;58104;52.744;15.242;2023-01-28T11:02:28;101994.36;;;14.89;36.64
70555;BME280;58104;52.744;15.242;2023-01-28T11:07:19;101990.12;;;14.98;36.50
70555;BME280;58104;52.744;15.242;2023-01-28T11:09:46;101989.22;;;15.03;36.59
70555;BME280;58104;52.744;15.242;2023-01-28T11:12:12;101998.74;;;14.94;35.20
70555;BME280;58104;52.744;15.242;2023-01-28T11:14:32;102000.45;;;15.04;35.28
70555;BME280;58104;52.744;15.242;2023-01-28T11:16:58;101991.76;;;15.20;35.18
70555;BME280;58104;52.744;15.242;2023-01-28T11:19:28;101988.30;;;15.32;34.88
70555;BME280;58104;52.744;15.242;2023-01-28T11:21:50;101986.18;;;15.31;34.62
70555;BME280;58104;52.744;15.242;2023-01-28T11:24:17;101990.78;;;15.19;34.75
70555;BME280;58104;52.744;15.242;2023-01-28T11:26:43;101989.17;;;14.97;35.02
70555;BME280;58104;52.744;15.242;2023-01-28T11:29:05;101983.28;;;14.59;35.55
70555;BME280;58104;52.744;15.242;2023-01-28T11:31:36;101985.56;;;14.75;35.01
70555;BME280;58104;52.744;15.242;2023-01-28T11:33:57;101988.30;;;14.62;35.84
70555;BME280;58104;52.744;15.242;2023-01-28T11:36:22;101986.66;;;14.35;36.03
70555;BME280;58104;52.744;15.242;2023-01-28T11:38:49;101981.68;;;14.57;35.57
70555;BME280;58104;52.744;15.242;2023-01-28T11:41:14;101977.56;;;14.40;36.38
70555;BME280;58104;52.744;15.242;2023-01-28T11:43:37;101975.34;;;14.36;36.19
70555;BME280;58104;52.744;15.242;2023-01-28T11:46:15;101967.77;;;14.32;36.11
70555;BME280;58104;52.744;15.242;2023-01-28T11:48:33;101967.29;;;14.56;35.76
70555;BME280;58104;52.744;15.242;2023-01-28T11:50:58;101970.69;;;14.30;35.98
70555;BME280;58104;52.744;15.242;2023-01-28T11:53:31;101977.99;;;15.08;38.05
70555;BME280;58104;52.744;15.242;2023-01-28T11:55:52;101976.75;;;15.54;37.63
70555;BME280;58104;52.744;15.242;2023-01-28T11:58:20;101972.55;;;15.84;37.36
70555;BME280;58104;52.744;15.242;2023-01-28T12:00:39;101970.11;;;16.16;37.00
70555;BME280;58104;52.744;15.242;2023-01-28T12:05:35;101972.03;;;16.40;37.08
70555;BME280;58104;52.744;15.242;2023-01-28T12:07:55;101963.70;;;16.37;37.20
70555;BME280;58104;52.744;15.242;2023-01-28T12:10:22;101965.89;;;16.49;37.30
70555;BME280;58104;52.744;15.242;2023-01-28T12:15:19;101959.10;;;16.54;37.25
70555;BME280;58104;52.744;15.242;2023-01-28T12:17:42;101957.10;;;16.62;37.04
70555;BME280;58104;52.744;15.242;2023-01-28T12:20:05;101954.94;;;16.58;37.04
70555;BME280;58104;52.744;15.242;2023-01-28T12:22:35;101961.48;;;16.58;36.98
70555;BME280;58104;52.744;15.242;2023-01-28T12:25:00;101962.13;;;16.58;37.04
70555;BME280;58104;52.744;15.242;2023-01-28T12:27:25;101962.58;;;16.66;37.08
70555;BME280;58104;52.744;15.242;2023-01-28T12:29:46;101957.57;;;16.77;37.10
70555;BME280;58104;52.744;15.242;2023-01-28T12:32:15;101954.46;;;16.73;37.13
70555;BME280;58104;52.744;15.242;2023-01-28T12:34:39;101950.34;;;16.73;37.16
70555;BME280;58104;52.744;15.242;2023-01-28T12:37:01;101951.78;;;16.69;37.09
70555;BME280;58104;52.744;15.242;2023-01-28T12:39:30;101950.00;;;16.72;37.03
70555;BME280;58104;52.744;15.242;2023-01-28T12:41:50;101946.71;;;16.68;37.16